Detroit, MI

3:20 PM EDT on July 06, 2015 (GMT -0400)
Near I-94/275 | | Change Station
CLOSE
Current Station
Personal Weather Station
Location: Romulus, MI
Elevation: 679 ft
Nearby Weather Stations

Elev 679 ft 42.22 °N, 83.40 °W | Updated 31 seconds ago

Clear
Clear
85.1 °F
Feels Like 87 °F
N
0.3
Wind Variable Wind from SSE
Gusts 2.3 mph

Today
High -- | Low -- °F
--% Chance of Precip.
Yesterday
High -- | Low -- °F
Precip. -- in
6:03 AM 9:12 PM
Waning Gibbous, 73% visible
Pressure 30.02 in
Visibility 10.0 miles
Clouds Few 5000 ft
Mostly Cloudy 24000 ft
Heat Index 87 °F
Dew Point 66 °F
Humidity 52%
Rainfall 0.00 in
Snow Depth Not available.
UV 6 out of 12
Pollen 3.10 out of 12
Air Quality Not available.
Flu Activity Not available.
METAR KDTW 061853Z VRB04KT 10SM FEW050 BKN240 28/16 A3003 RMK AO2 SLP164 T02830156

More Conditions Fewer Conditions

Pressure 30.02 in
Visibility 10.0 miles
Clouds Few 5000 ft
Mostly Cloudy 24000 ft
Heat Index 87 °F
Dew Point 66 °F
Humidity 52%
Rainfall 0.00 in
Snow Depth Not available.
UV 6 out of 12
Pollen 3.10 out of 12
Air Quality Not available.
Flu Activity Not available.
METAR KDTW 061853Z VRB04KT 10SM FEW050 BKN240 28/16 A3003 RMK AO2 SLP164 T02830156

More Conditions Fewer Conditions

10-Day Weather Forecast

×

Almanac

Astronomy

Jul. 06, 2015 Rise Set
Actual Time
Civil Twilight
Nautical Twilight
Astronomical Twilight
Moon
Length of Visible Light
Length of Day
Tomorrow will be .
, % of the Moon is Illuminated

Today's Extremes

State Highs State Lows

Community

WunderPhotos

Upload Photos

1,835,621 photos uploaded!

WunderBlogs® & News

Nearby

Air Quality

  Air Quality AQ Index Pollutant
Not available.

Snow Depth

Station Depth Elevation

Earthquake Activity

City Distance Mag. Time & Date
Minimum magnitude displayed is 2.5.

Coastal Water Temperatures

Place Temperature

Stations

Nearby Weather Stations

Station Location Temp. Windchill Dew Point Humidity Wind Precip. Elev Updated Type